sensor_id;sensor_type;location;lat;lon;timestamp;temperature;humidity
9466;DHT22;4771;48.726;9.006;2023-07-31T00:02:06;15.80;99.90
9466;DHT22;4771;48.726;9.006;2023-07-31T00:04:33;15.80;99.90
9466;DHT22;4771;48.726;9.006;2023-07-31T00:07:00;15.80;99.90
9466;DHT22;4771;48.726;9.006;2023-07-31T00:09:29;15.80;99.90
9466;DHT22;4771;48.726;9.006;2023-07-31T00:11:56;15.80;99.90
9466;DHT22;4771;48.726;9.006;2023-07-31T00:14:23;15.70;99.90
9466;DHT22;4771;48.726;9.006;2023-07-31T00:16:52;15.80;99.90
9466;DHT22;4771;48.726;9.006;2023-07-31T00:19:19;15.70;99.90
9466;DHT22;4771;48.726;9.006;2023-07-31T00:21:46;15.80;99.90
9466;DHT22;4771;48.726;9.006;2023-07-31T00:24:13;15.70;99.90
9466;DHT22;4771;48.726;9.006;2023-07-31T00:26:40;15.60;99.90
9466;DHT22;4771;48.726;9.006;2023-07-31T00:29:06;15.60;99.90
9466;DHT22;4771;48.726;9.006;2023-07-31T00:31:34;15.50;99.90
9466;DHT22;4771;48.726;9.006;2023-07-31T00:34:02;15.50;99.90
9466;DHT22;4771;48.726;9.006;2023-07-31T00:36:29;15.50;99.90
9466;DHT22;4771;48.726;9.006;2023-07-31T00:38:56;15.50;99.90
9466;DHT22;4771;48.726;9.006;2023-07-31T00:41:23;15.40;99.90
9466;DHT22;4771;48.726;9.006;2023-07-31T00:43:50;15.40;99.90
9466;DHT22;4771;48.726;9.006;2023-07-31T00:46:17;15.40;99.90
9466;DHT22;4771;48.726;9.006;2023-07-31T00:48:45;15.40;99.90
9466;DHT22;4771;48.726;9.006;2023-07-31T00:51:14;15.40;99.90
9466;DHT22;4771;48.726;9.006;2023-07-31T00:53:41;15.40;99.90
9466;DHT22;4771;48.726;9.006;2023-07-31T00:56:09;15.40;99.90
9466;DHT22;4771;48.726;9.006;2023-07-31T00:58:36;15.40;99.90
9466;DHT22;4771;48.726;9.006;2023-07-31T01:01:03;15.40;99.90
9466;DHT22;4771;48.726;9.006;2023-07-31T01:03:30;15.30;99.90
9466;DHT22;4771;48.726;9.006;2023-07-31T01:06:09;15.30;99.90
9466;DHT22;4771;48.726;9.006;2023-07-31T01:08:42;15.30;99.90
9466;DHT22;4771;48.726;9.006;2023-07-31T01:11:16;15.30;99.90
9466;DHT22;4771;48.726;9.006;2023-07-31T01:13:44;15.30;99.90
9466;DHT22;4771;48.726;9.006;2023-07-31T01:16:12;15.30;99.90
9466;DHT22;4771;48.726;9.006;2023-07-31T01:18:39;15.30;99.90
9466;DHT22;4771;48.726;9.006;2023-07-31T01:21:22;15.30;99.90
9466;DHT22;4771;48.726;9.006;2023-07-31T01:24:20;15.30;99.90
9466;DHT22;4771;48.726;9.006;2023-07-31T01:26:55;15.30;99.90
9466;DHT22;4771;48.726;9.006;2023-07-31T01:29:29;15.30;99.90
9466;DHT22;4771;48.726;9.006;2023-07-31T01:32:01;15.30;99.90
9466;DHT22;4771;48.726;9.006;2023-07-31T01:34:29;15.20;99.90
9466;DHT22;4771;48.726;9.006;2023-07-31T01:36:57;15.30;99.90
9466;DHT22;4771;48.726;9.006;2023-07-31T01:39:24;15.20;99.90
9466;DHT22;4771;48.726;9.006;2023-07-31T01:41:53;15.20;99.90
9466;DHT22;4771;48.726;9.006;2023-07-31T01:44:20;15.30;99.90
9466;DHT22;4771;48.726;9.006;2023-07-31T01:46:47;15.30;99.90
9466;DHT22;4771;48.726;9.006;2023-07-31T01:49:14;15.30;99.90
9466;DHT22;4771;48.726;9.006;2023-07-31T01:51:41;15.30;99.90
9466;DHT22;4771;48.726;9.006;2023-07-31T01:54:08;15.20;99.90
9466;DHT22;4771;48.726;9.006;2023-07-31T01:56:35;15.30;99.90
9466;DHT22;4771;48.726;9.006;2023-07-31T01:59:03;15.30;99.90
9466;DHT22;4771;48.726;9.006;2023-07-31T02:01:30;15.30;99.90
9466;DHT22;4771;48.726;9.006;2023-07-31T02:03:57;15.30;99.90
9466;DHT22;4771;48.726;9.006;2023-07-31T02:06:24;15.30;99.90
9466;DHT22;4771;48.726;9.006;2023-07-31T02:08:52;15.30;99.90
9466;DHT22;4771;48.726;9.006;2023-07-31T02:11:19;15.30;99.90
9466;DHT22;4771;48.726;9.006;2023-07-31T02:13:46;15.40;99.90
9466;DHT22;4771;48.726;9.006;2023-07-31T02:16:14;15.40;99.90
9466;DHT22;4771;48.726;9.006;2023-07-31T02:18:41;15.40;99.90
9466;DHT22;4771;48.726;9.006;2023-07-31T02:21:08;15.30;99.90
9466;DHT22;4771;48.726;9.006;2023-07-31T02:23:35;15.30;99.90
9466;DHT22;4771;48.726;9.006;2023-07-31T02:26:01;15.30;99.90
9466;DHT22;4771;48.726;9.006;2023-07-31T02:28:28;15.30;99.90
9466;DHT22;4771;48.726;9.006;2023-07-31T02:30:56;15.30;99.90
9466;DHT22;4771;48.726;9.006;2023-07-31T02:33:24;15.30;99.90
9466;DHT22;4771;48.726;9.006;2023-07-31T02:35:51;15.30;99.90
9466;DHT22;4771;48.726;9.006;2023-07-31T02:38:18;15.30;99.90
9466;DHT22;4771;48.726;9.006;2023-07-31T02:40:45;15.30;99.90
9466;DHT22;4771;48.726;9.006;2023-07-31T02:43:13;15.30;99.90
9466;DHT22;4771;48.726;9.006;2023-07-31T02:45:40;15.30;99.90
9466;DHT22;4771;48.726;9.006;2023-07-31T02:48:07;15.30;99.90
9466;DHT22;4771;48.726;9.006;2023-07-31T02:50:36;15.30;99.90
9466;DHT22;4771;48.726;9.006;2023-07-31T02:53:03;15.30;99.90
9466;DHT22;4771;48.726;9.006;2023-07-31T02:55:30;15.30;99.90
9466;DHT22;4771;48.726;9.006;2023-07-31T02:57:57;15.30;99.90
9466;DHT22;4771;48.726;9.006;2023-07-31T03:00:24;15.30;99.90
9466;DHT22;4771;48.726;9.006;2023-07-31T03:02:51;15.30;99.90
9466;DHT22;4771;48.726;9.006;2023-07-31T03:05:18;15.30;99.90
9466;DHT22;4771;48.726;9.006;2023-07-31T03:07:46;15.40;99.90
9466;DHT22;4771;48.726;9.006;2023-07-31T03:10:14;15.40;99.90
9466;DHT22;4771;48.726;9.006;2023-07-31T03:12:41;15.40;99.90
9466;DHT22;4771;48.726;9.006;2023-07-31T03:15:09;15.50;99.90
9466;DHT22;4771;48.726;9.006;2023-07-31T03:17:36;15.50;99.90
9466;DHT22;4771;48.726;9.006;2023-07-31T03:20:04;15.40;99.90
9466;DHT22;4771;48.726;9.006;2023-07-31T03:22:31;15.40;99.90
9466;DHT22;4771;48.726;9.006;2023-07-31T03:25:00;15.40;99.90
9466;DHT22;4771;48.726;9.006;2023-07-31T03:27:27;15.30;99.90
9466;DHT22;4771;48.726;9.006;2023-07-31T03:29:54;15.30;99.90
9466;DHT22;4771;48.726;9.006;2023-07-31T03:32:21;15.30;99.90
9466;DHT22;4771;48.726;9.006;2023-07-31T03:34:48;15.30;99.90
9466;DHT22;4771;48.726;9.006;2023-07-31T03:37:15;15.30;99.90
9466;DHT22;4771;48.726;9.006;2023-07-31T03:39:43;15.30;99.90
9466;DHT22;4771;48.726;9.006;2023-07-31T03:42:11;15.40;99.90
9466;DHT22;4771;48.726;9.006;2023-07-31T03:44:38;15.40;99.90
9466;DHT22;4771;48.726;9.006;2023-07-31T03:47:05;15.40;99.90
9466;DHT22;4771;48.726;9.006;2023-07-31T03:49:32;15.40;99.90
9466;DHT22;4771;48.726;9.006;2023-07-31T03:51:59;15.40;99.90
9466;DHT22;4771;48.726;9.006;2023-07-31T03:54:26;15.40;99.90
9466;DHT22;4771;48.726;9.006;2023-07-31T03:56:54;15.40;99.90
9466;DHT22;4771;48.726;9.006;2023-07-31T03:59:22;15.50;99.90
9466;DHT22;4771;48.726;9.006;2023-07-31T04:01:49;15.50;99.90
9466;DHT22;4771;48.726;9.006;2023-07-31T04:04:16;15.50;99.90
9466;DHT22;4771;48.726;9.006;2023-07-31T04:06:43;15.50;99.90
9466;DHT22;4771;48.726;9.006;2023-07-31T04:09:10;15.50;99.90
9466;DHT22;4771;48.726;9.006;2023-07-31T04:11:38;15.50;99.90
9466;DHT22;4771;48.726;9.006;2023-07-31T04:14:05;15.50;99.90
9466;DHT22;4771;48.726;9.006;2023-07-31T04:16:33;15.60;99.90
9466;DHT22;4771;48.726;9.006;2023-07-31T04:19:00;15.60;99.90
9466;DHT22;4771;48.726;9.006;2023-07-31T04:21:28;15.60;99.90
9466;DHT22;4771;48.726;9.006;2023-07-31T04:23:55;15.60;99.90
9466;DHT22;4771;48.726;9.006;2023-07-31T04:26:24;15.70;99.90
9466;DHT22;4771;48.726;9.006;2023-07-31T04:28:51;15.70;99.90
9466;DHT22;4771;48.726;9.006;2023-07-31T04:31:18;15.70;99.90
9466;DHT22;4771;48.726;9.006;2023-07-31T04:33:46;15.80;99.90
9466;DHT22;4771;48.726;9.006;2023-07-31T04:36:13;15.80;99.90
9466;DHT22;4771;48.726;9.006;2023-07-31T04:38:40;15.80;99.90
9466;DHT22;4771;48.726;9.006;2023-07-31T04:41:07;15.70;99.90
9466;DHT22;4771;48.726;9.006;2023-07-31T04:43:34;15.70;99.90
9466;DHT22;4771;48.726;9.006;2023-07-31T04:46:04;15.70;99.90
9466;DHT22;4771;48.726;9.006;2023-07-31T04:48:31;15.80;99.90
9466;DHT22;4771;48.726;9.006;2023-07-31T04:51:00;15.80;99.90
9466;DHT22;4771;48.726;9.006;2023-07-31T04:53:27;15.80;99.90
9466;DHT22;4771;48.726;9.006;2023-07-31T04:55:54;15.80;99.90
9466;DHT22;4771;48.726;9.006;2023-07-31T04:58:21;15.80;99.90
9466;DHT22;4771;48.726;9.006;2023-07-31T05:00:48;15.80;99.90
9466;DHT22;4771;48.726;9.006;2023-07-31T05:03:15;15.80;99.90
9466;DHT22;4771;48.726;9.006;2023-07-31T05:05:42;15.80;99.90
9466;DHT22;4771;48.726;9.006;2023-07-31T05:08:10;15.80;99.90
9466;DHT22;4771;48.726;9.006;2023-07-31T05:10:37;15.80;99.90
9466;DHT22;4771;48.726;9.006;2023-07-31T05:13:04;15.90;99.90
9466;DHT22;4771;48.726;9.006;2023-07-31T05:15:31;15.90;99.90
9466;DHT22;4771;48.726;9.006;2023-07-31T05:17:58;15.90;99.90
9466;DHT22;4771;48.726;9.006;2023-07-31T05:20:25;15.90;99.90
9466;DHT22;4771;48.726;9.006;2023-07-31T05:22:53;15.90;99.90
9466;DHT22;4771;48.726;9.006;2023-07-31T05:25:22;15.90;99.90
9466;DHT22;4771;48.726;9.006;2023-07-31T05:27:49;16.00;99.90
9466;DHT22;4771;48.726;9.006;2023-07-31T05:30:16;16.00;99.90
9466;DHT22;4771;48.726;9.006;2023-07-31T05:32:43;16.00;99.90
9466;DHT22;4771;48.726;9.006;2023-07-31T05:35:10;16.00;99.90
9466;DHT22;4771;48.726;9.006;2023-07-31T05:37:37;16.10;99.90
9466;DHT22;4771;48.726;9.006;2023-07-31T05:40:05;16.10;99.90
9466;DHT22;4771;48.726;9.006;2023-07-31T05:42:34;16.10;99.90
9466;DHT22;4771;48.726;9.006;2023-07-31T05:45:05;16.20;99.90
9466;DHT22;4771;48.726;9.006;2023-07-31T05:47:32;16.20;99.90
9466;DHT22;4771;48.726;9.006;2023-07-31T05:49:59;16.20;99.90
9466;DHT22;4771;48.726;9.006;2023-07-31T05:52:26;15.90;99.90
9466;DHT22;4771;48.726;9.006;2023-07-31T05:54:54;16.30;99.90
9466;DHT22;4771;48.726;9.006;2023-07-31T05:57:21;16.30;99.90
9466;DHT22;4771;48.726;9.006;2023-07-31T05:59:49;16.30;99.90
9466;DHT22;4771;48.726;9.006;2023-07-31T06:02:17;16.40;99.90
9466;DHT22;4771;48.726;9.006;2023-07-31T06:04:44;16.40;99.90
9466;DHT22;4771;48.726;9.006;2023-07-31T06:07:11;16.40;99.90
9466;DHT22;4771;48.726;9.006;2023-07-31T06:09:38;16.40;99.90
9466;DHT22;4771;48.726;9.006;2023-07-31T06:12:05;16.50;99.90
9466;DHT22;4771;48.726;9.006;2023-07-31T06:14:32;16.40;99.90
9466;DHT22;4771;48.726;9.006;2023-07-31T06:17:01;16.50;99.90
9466;DHT22;4771;48.726;9.006;2023-07-31T06:19:28;16.60;99.90
9466;DHT22;4771;48.726;9.006;2023-07-31T06:21:55;16.60;99.90
9466;DHT22;4771;48.726;9.006;2023-07-31T06:24:22;16.60;99.90
9466;DHT22;4771;48.726;9.006;2023-07-31T06:26:49;16.60;99.90
9466;DHT22;4771;48.726;9.006;2023-07-31T06:29:16;16.60;99.90
9466;DHT22;4771;48.726;9.006;2023-07-31T06:31:43;16.60;99.90
9466;DHT22;4771;48.726;9.006;2023-07-31T06:34:11;16.60;99.90
9466;DHT22;4771;48.726;9.006;2023-07-31T06:36:38;16.70;99.90
9466;DHT22;4771;48.726;9.006;2023-07-31T06:39:06;16.70;99.90
9466;DHT22;4771;48.726;9.006;2023-07-31T06:41:33;16.80;99.90
9466;DHT22;4771;48.726;9.006;2023-07-31T06:44:00;16.80;99.90
9466;DHT22;4771;48.726;9.006;2023-07-31T06:46:27;16.80;99.90
9466;DHT22;4771;48.726;9.006;2023-07-31T06:48:54;17.00;99.90
9466;DHT22;4771;48.726;9.006;2023-07-31T06:51:22;17.00;99.90
9466;DHT22;4771;48.726;9.006;2023-07-31T06:53:49;17.00;99.90
9466;DHT22;4771;48.726;9.006;2023-07-31T06:56:16;17.00;99.90
9466;DHT22;4771;48.726;9.006;2023-07-31T06:58:43;17.10;99.90
9466;DHT22;4771;48.726;9.006;2023-07-31T07:01:10;17.10;99.90
9466;DHT22;4771;48.726;9.006;2023-07-31T07:03:37;17.20;99.90
9466;DHT22;4771;48.726;9.006;2023-07-31T07:06:04;17.20;99.90
9466;DHT22;4771;48.726;9.006;2023-07-31T07:08:33;17.30;99.90
9466;DHT22;4771;48.726;9.006;2023-07-31T07:11:00;17.30;99.90
9466;DHT22;4771;48.726;9.006;2023-07-31T07:13:27;17.30;99.90
9466;DHT22;4771;48.726;9.006;2023-07-31T07:15:54;17.40;99.90
9466;DHT22;4771;48.726;9.006;2023-07-31T07:18:21;17.40;99.90
9466;DHT22;4771;48.726;9.006;2023-07-31T07:20:50;17.50;99.90
9466;DHT22;4771;48.726;9.006;2023-07-31T07:23:18;17.60;99.90
9466;DHT22;4771;48.726;9.006;2023-07-31T07:25:47;17.60;99.90
9466;DHT22;4771;48.726;9.006;2023-07-31T07:28:14;17.70;99.90
9466;DHT22;4771;48.726;9.006;2023-07-31T07:30:41;17.70;99.90
9466;DHT22;4771;48.726;9.006;2023-07-31T07:33:08;17.80;99.90
9466;DHT22;4771;48.726;9.006;2023-07-31T07:35:36;17.80;99.90
9466;DHT22;4771;48.726;9.006;2023-07-31T07:38:03;17.80;99.90
9466;DHT22;4771;48.726;9.006;2023-07-31T07:40:30;17.80;99.90
9466;DHT22;4771;48.726;9.006;2023-07-31T07:42:59;17.80;99.90
9466;DHT22;4771;48.726;9.006;2023-07-31T07:45:26;17.80;99.90
9466;DHT22;4771;48.726;9.006;2023-07-31T07:47:53;17.90;99.90
9466;DHT22;4771;48.726;9.006;2023-07-31T07:50:20;17.90;99.90
9466;DHT22;4771;48.726;9.006;2023-07-31T07:52:47;17.90;99.90
9466;DHT22;4771;48.726;9.006;2023-07-31T07:55:14;18.00;99.90
9466;DHT22;4771;48.726;9.006;2023-07-31T07:57:41;18.00;99.90
9466;DHT22;4771;48.726;9.006;2023-07-31T08:00:12;18.00;99.90
9466;DHT22;4771;48.726;9.006;2023-07-31T08:02:40;18.00;99.90
9466;DHT22;4771;48.726;9.006;2023-07-31T08:05:07;18.10;99.90
9466;DHT22;4771;48.726;9.006;2023-07-31T08:07:35;18.20;99.90
9466;DHT22;4771;48.726;9.006;2023-07-31T08:10:02;18.20;99.90
9466;DHT22;4771;48.726;9.006;2023-07-31T08:12:29;18.30;99.90
9466;DHT22;4771;48.726;9.006;2023-07-31T08:14:56;18.30;99.90
9466;DHT22;4771;48.726;9.006;2023-07-31T08:17:24;18.30;99.90
9466;DHT22;4771;48.726;9.006;2023-07-31T08:19:51;18.30;99.90
9466;DHT22;4771;48.726;9.006;2023-07-31T08:22:18;18.40;99.90
9466;DHT22;4771;48.726;9.006;2023-07-31T08:24:45;18.40;99.90
9466;DHT22;4771;48.726;9.006;2023-07-31T08:27:12;18.40;99.90
9466;DHT22;4771;48.726;9.006;2023-07-31T08:29:39;18.50;99.90
9466;DHT22;4771;48.726;9.006;2023-07-31T08:32:07;18.50;99.90
9466;DHT22;4771;48.726;9.006;2023-07-31T08:34:35;18.60;99.90
9466;DHT22;4771;48.726;9.006;2023-07-31T08:37:03;18.60;99.90
9466;DHT22;4771;48.726;9.006;2023-07-31T08:39:30;18.60;99.90
9466;DHT22;4771;48.726;9.006;2023-07-31T08:42:00;18.70;99.90
9466;DHT22;4771;48.726;9.006;2023-07-31T08:44:27;18.70;99.90
9466;DHT22;4771;48.726;9.006;2023-07-31T08:46:56;18.70;99.90
9466;DHT22;4771;48.726;9.006;2023-07-31T08:49:23;18.70;99.90
9466;DHT22;4771;48.726;9.006;2023-07-31T08:51:52;18.70;99.90
9466;DHT22;4771;48.726;9.006;2023-07-31T08:54:20;18.70;99.90
9466;DHT22;4771;48.726;9.006;2023-07-31T08:56:48;18.70;99.90
9466;DHT22;4771;48.726;9.006;2023-07-31T08:59:16;18.80;99.90
9466;DHT22;4771;48.726;9.006;2023-07-31T09:01:49;18.80;99.90
9466;DHT22;4771;48.726;9.006;2023-07-31T09:04:17;18.80;99.90
9466;DHT22;4771;48.726;9.006;2023-07-31T09:06:45;18.90;99.90
9466;DHT22;4771;48.726;9.006;2023-07-31T09:09:15;18.90;99.90
9466;DHT22;4771;48.726;9.006;2023-07-31T09:11:43;19.00;99.90
9466;DHT22;4771;48.726;9.006;2023-07-31T09:14:10;19.00;99.90
9466;DHT22;4771;48.726;9.006;2023-07-31T09:16:51;19.10;99.90
9466;DHT22;4771;48.726;9.006;2023-07-31T09:19:25;19.20;99.90
9466;DHT22;4771;48.726;9.006;2023-07-31T09:21:53;19.20;99.90
9466;DHT22;4771;48.726;9.006;2023-07-31T09:24:27;19.30;99.90
9466;DHT22;4771;48.726;9.006;2023-07-31T09:26:54;19.30;99.90
9466;DHT22;4771;48.726;9.006;2023-07-31T09:29:22;19.30;99.90
9466;DHT22;4771;48.726;9.006;2023-07-31T09:31:50;19.40;99.90
9466;DHT22;4771;48.726;9.006;2023-07-31T09:34:18;19.40;99.90
9466;DHT22;4771;48.726;9.006;2023-07-31T09:36:46;19.40;99.90
9466;DHT22;4771;48.726;9.006;2023-07-31T09:39:15;19.30;99.90
9466;DHT22;4771;48.726;9.006;2023-07-31T09:41:45;19.30;99.90
9466;DHT22;4771;48.726;9.006;2023-07-31T09:44:12;19.30;99.90
9466;DHT22;4771;48.726;9.006;2023-07-31T09:46:39;19.40;99.90
9466;DHT22;4771;48.726;9.006;2023-07-31T09:49:07;19.50;99.90
9466;DHT22;4771;48.726;9.006;2023-07-31T09:51:36;19.60;99.90
9466;DHT22;4771;48.726;9.006;2023-07-31T09:54:09;19.60;99.90
9466;DHT22;4771;48.726;9.006;2023-07-31T09:56:43;19.60;99.90
9466;DHT22;4771;48.726;9.006;2023-07-31T09:59:11;19.70;99.90
9466;DHT22;4771;48.726;9.006;2023-07-31T10:01:40;19.80;99.90
9466;DHT22;4771;48.726;9.006;2023-07-31T10:04:08;19.90;99.90
9466;DHT22;4771;48.726;9.006;2023-07-31T10:06:36;19.90;99.90
9466;DHT22;4771;48.726;9.006;2023-07-31T10:09:06;19.90;99.90
9466;DHT22;4771;48.726;9.006;2023-07-31T10:11:39;19.90;99.90
9466;DHT22;4771;48.726;9.006;2023-07-31T10:14:11;20.00;99.90
9466;DHT22;4771;48.726;9.006;2023-07-31T10:16:39;20.00;99.90
9466;DHT22;4771;48.726;9.006;2023-07-31T10:19:07;20.10;99.90
9466;DHT22;4771;48.726;9.006;2023-07-31T10:21:35;20.20;99.90
9466;DHT22;4771;48.726;9.006;2023-07-31T10:24:04;20.20;99.90
9466;DHT22;4771;48.726;9.006;2023-07-31T10:26:32;20.00;99.90
9466;DHT22;4771;48.726;9.006;2023-07-31T10:29:00;20.00;99.90
9466;DHT22;4771;48.726;9.006;2023-07-31T10:31:28;20.00;99.90
9466;DHT22;4771;48.726;9.006;2023-07-31T10:33:57;20.20;99.90
9466;DHT22;4771;48.726;9.006;2023-07-31T10:36:25;20.30;99.90
9466;DHT22;4771;48.726;9.006;2023-07-31T10:38:52;20.50;99.90
9466;DHT22;4771;48.726;9.006;2023-07-31T10:41:28;20.50;99.90
9466;DHT22;4771;48.726;9.006;2023-07-31T10:43:58;20.40;99.90
9466;DHT22;4771;48.726;9.006;2023-07-31T10:46:29;20.50;99.90
9466;DHT22;4771;48.726;9.006;2023-07-31T10:49:00;20.60;99.90
9466;DHT22;4771;48.726;9.006;2023-07-31T10:51:35;20.80;99.90
9466;DHT22;4771;48.726;9.006;2023-07-31T10:54:11;20.80;99.90
9466;DHT22;4771;48.726;9.006;2023-07-31T10:56:39;21.00;99.90
9466;DHT22;4771;48.726;9.006;2023-07-31T10:59:06;21.00;99.90
9466;DHT22;4771;48.726;9.006;2023-07-31T11:01:54;21.10;99.90
9466;DHT22;4771;48.726;9.006;2023-07-31T11:04:23;21.10;99.90
9466;DHT22;4771;48.726;9.006;2023-07-31T11:06:57;21.10;99.90
9466;DHT22;4771;48.726;9.006;2023-07-31T11:09:27;21.10;99.90
9466;DHT22;4771;48.726;9.006;2023-07-31T11:11:55;21.10;99.90
9466;DHT22;4771;48.726;9.006;2023-07-31T11:14:23;21.10;99.90
9466;DHT22;4771;48.726;9.006;2023-07-31T11:16:50;21.00;99.90
9466;DHT22;4771;48.726;9.006;2023-07-31T11:19:22;20.90;99.90
9466;DHT22;4771;48.726;9.006;2023-07-31T11:21:51;20.90;99.90
9466;DHT22;4771;48.726;9.006;2023-07-31T11:24:18;20.90;99.90
9466;DHT22;4771;48.726;9.006;2023-07-31T11:26:49;20.80;99.90
9466;DHT22;4771;48.726;9.006;2023-07-31T11:29:17;20.80;99.90
9466;DHT22;4771;48.726;9.006;2023-07-31T11:31:44;20.70;99.90
9466;DHT22;4771;48.726;9.006;2023-07-31T11:34:12;20.70;99.90
9466;DHT22;4771;48.726;9.006;2023-07-31T11:36:40;20.70;99.90
9466;DHT22;4771;48.726;9.006;2023-07-31T11:39:08;20.60;99.90
9466;DHT22;4771;48.726;9.006;2023-07-31T11:41:36;20.60;99.90
9466;DHT22;4771;48.726;9.006;2023-07-31T11:44:03;20.60;99.90
9466;DHT22;4771;48.726;9.006;2023-07-31T11:46:30;20.60;99.90
9466;DHT22;4771;48.726;9.006;2023-07-31T11:48:59;20.60;99.90
9466;DHT22;4771;48.726;9.006;2023-07-31T11:51:27;20.60;99.90
9466;DHT22;4771;48.726;9.006;2023-07-31T11:53:59;20.60;99.90
9466;DHT22;4771;48.726;9.006;2023-07-31T11:56:27;20.60;99.90
9466;DHT22;4771;48.726;9.006;2023-07-31T11:58:58;20.60;99.90
9466;DHT22;4771;48.726;9.006;2023-07-31T12:01:26;20.60;99.90
9466;DHT22;4771;48.726;9.006;2023-07-31T12:03:54;20.60;99.90
9466;DHT22;4771;48.726;9.006;2023-07-31T12:06:22;20.60;99.90
9466;DHT22;4771;48.726;9.006;2023-07-31T12:09:03;20.60;99.90
9466;DHT22;4771;48.726;9.006;2023-07-31T12:11:30;20.60;99.90
9466;DHT22;4771;48.726;9.006;2023-07-31T12:13:57;20.60;99.90
9466;DHT22;4771;48.726;9.006;2023-07-31T12:16:26;20.60;99.90
9466;DHT22;4771;48.726;9.006;2023-07-31T12:18:54;20.60;99.90
9466;DHT22;4771;48.726;9.006;2023-07-31T12:21:21;20.60;99.90
9466;DHT22;4771;48.726;9.006;2023-07-31T12:23:48;20.40;99.90
9466;DHT22;4771;48.726;9.006;2023-07-31T12:26:17;20.40;99.90
9466;DHT22;4771;48.726;9.006;2023-07-31T12:28:45;20.20;99.90
9466;DHT22;4771;48.726;9.006;2023-07-31T12:31:14;20.20;99.90
9466;DHT22;4771;48.726;9.006;2023-07-31T12:33:43;20.10;99.90
9466;DHT22;4771;48.726;9.006;2023-07-31T12:36:12;20.10;99.90
9466;DHT22;4771;48.726;9.006;2023-07-31T12:38:39;20.10;99.90
9466;DHT22;4771;48.726;9.006;2023-07-31T12:41:06;20.10;99.90
9466;DHT22;4771;48.726;9.006;2023-07-31T12:43:35;20.10;99.90
9466;DHT22;4771;48.726;9.006;2023-07-31T12:46:02;20.10;99.90
9466;DHT22;4771;48.726;9.006;2023-07-31T12:48:29;20.20;99.90
9466;DHT22;4771;48.726;9.006;2023-07-31T12:50:56;20.30;99.90
9466;DHT22;4771;48.726;9.006;2023-07-31T12:53:23;20.30;99.90
9466;DHT22;4771;48.726;9.006;2023-07-31T12:55:50;20.40;99.90
9466;DHT22;4771;48.726;9.006;2023-07-31T12:58:17;20.40;99.90
9466;DHT22;4771;48.726;9.006;2023-07-31T13:00:46;20.50;99.90
9466;DHT22;4771;48.726;9.006;2023-07-31T13:03:13;20.60;99.90
9466;DHT22;4771;48.726;9.006;2023-07-31T13:05:40;20.60;99.90
9466;DHT22;4771;48.726;9.006;2023-07-31T13:08:07;20.70;99.90
9466;DHT22;4771;48.726;9.006;2023-07-31T13:10:34;20.80;99.90
9466;DHT22;4771;48.726;9.006;2023-07-31T13:13:01;20.90;99.90
9466;DHT22;4771;48.726;9.006;2023-07-31T13:15:28;20.90;99.90
9466;DHT22;4771;48.726;9.006;2023-07-31T13:17:56;21.00;99.90
9466;DHT22;4771;48.726;9.006;2023-07-31T13:20:24;20.90;99.90
9466;DHT22;4771;48.726;9.006;2023-07-31T13:22:51;20.90;99.90
9466;DHT22;4771;48.726;9.006;2023-07-31T13:25:18;20.90;99.90
9466;DHT22;4771;48.726;9.006;2023-07-31T13:27:45;20.90;99.90
9466;DHT22;4771;48.726;9.006;2023-07-31T13:30:12;20.90;99.90
9466;DHT22;4771;48.726;9.006;2023-07-31T13:32:39;21.00;99.90
9466;DHT22;4771;48.726;9.006;2023-07-31T13:35:08;21.10;99.90
9466;DHT22;4771;48.726;9.006;2023-07-31T13:37:37;21.10;99.90
9466;DHT22;4771;48.726;9.006;2023-07-31T13:40:05;21.20;99.90
9466;DHT22;4771;48.726;9.006;2023-07-31T13:42:32;21.20;99.90
9466;DHT22;4771;48.726;9.006;2023-07-31T13:44:59;21.20;99.90
9466;DHT22;4771;48.726;9.006;2023-07-31T13:47:26;21.20;99.90
9466;DHT22;4771;48.726;9.006;2023-07-31T13:49:53;21.20;99.90
9466;DHT22;4771;48.726;9.006;2023-07-31T13:52:21;21.10;99.90
9466;DHT22;4771;48.726;9.006;2023-07-31T13:54:48;21.10;99.90
9466;DHT22;4771;48.726;9.006;2023-07-31T13:57:15;21.10;99.90
9466;DHT22;4771;48.726;9.006;2023-07-31T13:59:42;21.10;99.90
9466;DHT22;4771;48.726;9.006;2023-07-31T14:02:09;21.10;99.90
9466;DHT22;4771;48.726;9.006;2023-07-31T14:04:36;21.10;99.90
9466;DHT22;4771;48.726;9.006;2023-07-31T14:07:04;21.10;99.90
9466;DHT22;4771;48.726;9.006;2023-07-31T14:09:32;21.00;99.90
9466;DHT22;4771;48.726;9.006;2023-07-31T14:11:59;21.10;99.90
9466;DHT22;4771;48.726;9.006;2023-07-31T14:14:26;21.10;99.90
9466;DHT22;4771;48.726;9.006;2023-07-31T14:16:53;21.00;99.90
9466;DHT22;4771;48.726;9.006;2023-07-31T14:19:20;21.10;99.90
9466;DHT22;4771;48.726;9.006;2023-07-31T14:21:47;21.10;99.90
9466;DHT22;4771;48.726;9.006;2023-07-31T14:24:14;21.10;99.90
9466;DHT22;4771;48.726;9.006;2023-07-31T14:26:43;21.10;99.90
9466;DHT22;4771;48.726;9.006;2023-07-31T14:29:10;21.10;99.90
9466;DHT22;4771;48.726;9.006;2023-07-31T14:31:37;21.20;99.90
9466;DHT22;4771;48.726;9.006;2023-07-31T14:34:04;21.10;99.90
9466;DHT22;4771;48.726;9.006;2023-07-31T14:36:31;21.20;99.90
9466;DHT22;4771;48.726;9.006;2023-07-31T14:38:58;21.10;99.90
9466;DHT22;4771;48.726;9.006;2023-07-31T14:41:25;21.20;99.90
9466;DHT22;4771;48.726;9.006;2023-07-31T14:43:54;21.20;99.90
9466;DHT22;4771;48.726;9.006;2023-07-31T14:46:21;21.20;99.90
9466;DHT22;4771;48.726;9.006;2023-07-31T14:48:48;21.20;99.90
9466;DHT22;4771;48.726;9.006;2023-07-31T14:51:15;21.20;99.90
9466;DHT22;4771;48.726;9.006;2023-07-31T14:53:43;21.20;99.90
9466;DHT22;4771;48.726;9.006;2023-07-31T14:56:10;21.20;99.90
9466;DHT22;4771;48.726;9.006;2023-07-31T14:58:37;21.20;99.90
9466;DHT22;4771;48.726;9.006;2023-07-31T15:01:06;21.20;99.90
9466;DHT22;4771;48.726;9.006;2023-07-31T15:03:33;21.10;99.90
9466;DHT22;4771;48.726;9.006;2023-07-31T15:06:00;21.10;99.90
9466;DHT22;4771;48.726;9.006;2023-07-31T15:08:27;21.10;99.90
9466;DHT22;4771;48.726;9.006;2023-07-31T15:10:54;21.10;99.90
9466;DHT22;4771;48.726;9.006;2023-07-31T15:13:23;21.10;99.90
9466;DHT22;4771;48.726;9.006;2023-07-31T15:15:50;21.10;99.90
9466;DHT22;4771;48.726;9.006;2023-07-31T15:18:19;21.10;99.90
9466;DHT22;4771;48.726;9.006;2023-07-31T15:20:46;21.10;99.90
9466;DHT22;4771;48.726;9.006;2023-07-31T15:23:13;21.10;99.90
9466;DHT22;4771;48.726;9.006;2023-07-31T15:25:40;21.10;99.90
9466;DHT22;4771;48.726;9.006;2023-07-31T15:28:08;21.20;99.90
9466;DHT22;4771;48.726;9.006;2023-07-31T15:30:35;21.20;99.90
9466;DHT22;4771;48.726;9.006;2023-07-31T15:33:03;21.20;99.90
9466;DHT22;4771;48.726;9.006;2023-07-31T15:35:31;21.30;99.90
9466;DHT22;4771;48.726;9.006;2023-07-31T15:37:58;21.30;99.90
9466;DHT22;4771;48.726;9.006;2023-07-31T15:40:26;21.30;99.90
9466;DHT22;4771;48.726;9.006;2023-07-31T15:42:53;21.30;99.90
9466;DHT22;4771;48.726;9.006;2023-07-31T15:45:20;21.30;99.90
9466;DHT22;4771;48.726;9.006;2023-07-31T15:47:48;21.40;99.90
9466;DHT22;4771;48.726;9.006;2023-07-31T15:50:15;21.40;99.90
9466;DHT22;4771;48.726;9.006;2023-07-31T15:52:43;21.50;99.90
9466;DHT22;4771;48.726;9.006;2023-07-31T15:55:10;21.40;99.90
9466;DHT22;4771;48.726;9.006;2023-07-31T15:57:37;21.50;99.90
9466;DHT22;4771;48.726;9.006;2023-07-31T16:00:06;21.50;99.90
9466;DHT22;4771;48.726;9.006;2023-07-31T16:02:35;21.50;99.90
9466;DHT22;4771;48.726;9.006;2023-07-31T16:05:02;21.60;99.90
9466;DHT22;4771;48.726;9.006;2023-07-31T16:07:30;21.60;99.90